Latest Weather Observations for Warragul (Nilma North)

IDV60801

Issued at 11:32 pm EDT Thursday 30 March 2017 (issued every 30 minutes, with the page automatically refreshed every 10 minutes)

About weather observations | Map of weather stations | Latest weather observations for VIC | Other Formats
Station Details ID: 085313 Name: NILMA NORTH (WARRAGUL) Lat: -38.13 Lon: 145.99 Height: 134.11 m
Data from the previous 72 hours. | See also: Recent months for locations in Victoria
Date/Time
EDT
Temp
°C
App
Temp
°C
Dew
Point
°C
Rel
Hum
%
Delta-T
°C
Wind Press
QNH
hPa
Press
MSL
hPa
Rain since
9am
mm
Dir  Spd
km/h
Gust
km/h
Spd
kts
Gust
kts
30/11:30pm 10.0 8.6 7.3 83 1.3 NW 4 4 2 2 1021.6 1021.3 0.2
30/11:00pm 10.9 10.3 7.6 80 1.6 CALM 0 4 0 2 1021.7 1021.4 0.2
30/10:30pm 11.3 9.9 7.4 77 1.9 WSW 4 9 2 5 1022.0 1021.7 0.2
30/10:00pm 10.6 8.8 7.8 83 1.4 WNW 7 9 4 5 1021.9 1021.6 0.2
30/09:30pm 9.8 8.3 6.9 82 1.4 WNW 4 6 2 3 1021.6 1021.3 0.2
30/09:00pm 10.0 8.1 6.7 80 1.6 W 6 7 3 4 1021.2 1021.0 0.2
30/08:30pm 10.7 8.9 7.0 78 1.8 W 6 7 3 4 1020.7 1020.5 0.2
30/08:00pm 12.4 10.6 7.1 70 2.6 WSW 6 9 3 5 1020.4 1020.2 0.2
30/07:30pm 13.1 11.2 6.7 65 3.1 SW 6 13 3 7 1020.0 1019.8 0.2
30/07:00pm 13.7 11.0 5.6 58 3.8 WSW 9 20 5 11 1019.5 1019.2 0.2
30/06:30pm 14.5 12.5 6.1 57 4.1 SW 6 11 3 6 1018.9 1018.6 0.2
30/06:00pm 14.4 11.8 6.3 58 3.9 SW 9 17 5 9 1018.5 1018.2 0.2
30/05:30pm 16.0 14.0 7.0 55 4.5 SW 7 22 4 12 1018.1 1017.8 0.2
30/05:00pm 15.5 12.2 6.2 54 4.5 SSW 13 22 7 12 1017.8 1017.5 0.2
30/04:30pm 16.3 13.0 6.4 52 4.9 SW 13 24 7 13 1017.4 1017.1 0.2
30/04:00pm 15.8 12.1 6.5 54 4.6 WSW 15 28 8 15 1017.3 1017.0 0.2
30/03:30pm 15.7 12.5 5.0 49 5.1 WSW 11 24 6 13 1017.0 1016.7 0.2
30/03:00pm 16.2 12.9 6.6 53 4.7 WSW 13 22 7 12 1016.7 1016.4 0.2
30/02:30pm 15.8 12.6 6.8 55 4.4 WSW 13 22 7 12 1016.6 1016.3 0.2
30/02:00pm 16.2 13.6 9.4 64 3.5 SW 13 20 7 11 1016.5 1016.2 0.2
30/01:30pm 14.7 12.5 8.0 64 3.4 SW 9 17 5 9 1016.9 1016.6 0.2
30/01:00pm 15.5 12.3 8.5 63 3.6 WSW 15 41 8 22 1016.8 1016.5 0.2
30/12:30pm 14.4 12.3 9.8 74 2.4 WSW 11 19 6 10 1016.8 1016.5 0.2
30/12:00pm 14.3 13.1 11.5 83 1.5 W 9 17 5 9 1016.7 1016.4 0.2
30/11:30am 13.4 10.4 10.8 84 1.4 W 17 26 9 14 1016.8 1016.5 0.2
30/11:00am 13.8 10.5 9.5 75 2.2 W 17 26 9 14 1016.6 1016.3 0.2
30/10:30am 12.9 9.3 9.7 81 1.6 W 19 28 10 15 1016.5 1016.2 0.0
30/10:00am 12.4 9.5 9.8 84 1.3 W 15 24 8 13 1016.4 1016.1 0.0
30/09:30am 11.6 10.3 10.0 90 0.8 WNW 7 11 4 6 1016.1 1015.8 0.0
30/09:00am 10.4 9.6 9.5 94 0.5 NW 4 9 2 5 1015.8 1015.5 9.6
30/08:30am 9.6 8.2 8.8 95 0.4 W 6 7 3 4 1015.4 1015.1 9.6
30/08:00am 8.9 8.1 8.1 95 0.4 W 2 6 1 3 1014.9 1014.6 9.6
30/07:30am 9.1 8.7 8.3 95 0.4 CALM 0 0 0 0 1014.8 1014.5 9.6
30/07:00am 8.5 7.5 7.4 93 0.5 NNW 2 6 1 3 1014.3 1014.0 9.6
30/06:30am 9.1 7.5 7.9 92 0.6 N 6 9 3 5 1013.9 1013.6 9.6
30/06:00am 9.2 7.7 8.3 94 0.4 N 6 7 3 4 1013.6 1013.2 9.6
30/05:30am 9.4 7.4 8.6 95 0.4 S 9 13 5 7 1013.7 1013.4 9.4
30/05:00am 9.2 8.8 8.1 93 0.5 CALM 0 0 0 0 1012.9 1012.6 9.4
30/04:30am 9.2 7.4 8.1 93 0.5 NNW 7 11 4 6 1012.7 1012.4 9.4
30/04:00am 9.2 7.7 8.3 94 0.4 NW 6 9 3 5 1013.0 1012.7 9.2
30/03:30am 9.3 7.6 8.4 94 0.4 WNW 7 13 4 7 1013.1 1012.8 8.6
30/03:00am 9.4 7.4 8.6 95 0.4 NW 9 17 5 9 1012.4 1012.1 7.8
30/02:30am 9.6 7.3 9.0 96 0.3 NW 11 20 6 11 1012.3 1012.0 7.6
30/02:00am 10.2 7.3 9.6 96 0.3 WNW 15 24 8 13 1012.4 1012.1 7.6
30/01:30am 10.2 7.6 9.4 95 0.4 W 13 20 7 11 1012.4 1012.1 6.8
30/01:00am 10.1 7.9 9.5 96 0.3 WSW 11 19 6 10 1011.9 1011.6 5.8
30/12:30am 10.5 8.4 9.9 96 0.3 SW 11 19 6 10 1011.7 1011.4 4.4
30/12:00am 10.9 8.9 10.3 96 0.3 WSW 11 22 6 12 1011.6 1011.3 3.6
 
Date/Time
EDT
Temp
°C
App
Temp
°C
Dew
Point
°C
Rel
Hum
%
Delta-T
°C
Wind Press
QNH
hPa
Press
MSL
hPa
Rain since
9am
mm
Dir  Spd
km/h
Gust
km/h
Spd
kts
Gust
kts
29/11:30pm 11.9 11.2 11.3 96 0.3 SW 6 9 3 5 1011.5 1011.2 1.6
29/11:00pm 12.4 10.9 11.8 96 0.3 W 11 15 6 8 1011.1 1010.8 0.4
29/10:30pm 12.4 10.4 11.6 95 0.4 W 13 22 7 12 1011.1 1010.8 0.2
29/10:00pm 12.3 10.7 11.4 94 0.5 WSW 11 20 6 11 1010.7 1010.4 0.2
29/09:30pm 13.6 11.4 12.2 91 0.8 WSW 15 24 8 13 1010.3 1010.0 0.0
29/09:00pm 14.4 12.1 11.6 83 1.5 WSW 15 26 8 14 1009.5 1009.2 0.0
29/08:30pm 15.4 12.3 11.6 78 2.1 SW 19 37 10 20 1008.8 1008.5 0.0
29/08:00pm 16.9 13.4 12.2 74 2.6 WSW 22 41 12 22 1006.9 1006.5 0.0
29/07:46pm 19.1 14.3 11.7 62 4.1 WSW 28 48 15 26 1006.1 1005.7 0.0
29/07:30pm 23.1 20.0 10.2 44 7.1 W 17 28 9 15 1005.1 1004.8 0.0
29/07:00pm 23.4 21.2 9.4 41 7.6 NW 11 22 6 12 1004.9 1004.6 0.0
29/06:30pm 23.9 21.2 9.1 39 8.0 NW 13 28 7 15 1004.7 1004.4 0.0
29/06:00pm 24.7 20.7 9.0 37 8.6 NW 20 41 11 22 1004.4 1004.1 0.0
29/05:30pm 25.1 21.3 9.0 36 8.8 WNW 19 32 10 17 1004.4 1004.1 0.0
29/05:00pm 25.7 21.0 9.1 35 9.1 WNW 24 37 13 20 1004.1 1003.8 0.0
29/04:30pm 26.3 21.1 8.8 33 9.6 WNW 26 43 14 23 1003.9 1003.6 0.0
29/04:00pm 26.7 22.2 8.6 32 9.9 WNW 22 37 12 20 1004.1 1003.8 0.0
29/03:30pm 26.5 20.9 8.9 33 9.7 WNW 28 41 15 22 1004.4 1004.1 0.0
29/03:00pm 26.2 20.7 9.1 34 9.4 WNW 28 43 15 23 1004.6 1004.3 0.0
29/02:38pm 26.0 20.3 8.5 33 9.5 WNW 28 52 15 28 1005.0 1004.7 0.0
29/02:30pm 26.0 21.6 8.9 34 9.4 WNW 22 41 12 22 1005.1 1004.8 0.0
29/02:00pm 26.2 22.5 9.5 35 9.3 WNW 19 33 10 18 1005.8 1005.4 0.0
29/01:30pm 25.9 22.4 10.1 37 8.8 WNW 19 30 10 16 1006.2 1005.8 0.0
29/01:00pm 25.2 21.9 9.5 37 8.7 NW 17 33 9 18 1006.6 1006.2 0.0
29/12:30pm 25.6 21.9 9.4 36 8.9 WNW 19 30 10 16 1007.1 1006.7 0.0
29/12:00pm 25.2 21.4 9.1 36 8.8 NW 19 35 10 19 1007.6 1007.3 0.0
29/11:30am 24.7 21.7 10.6 41 7.9 NW 17 37 9 20 1008.0 1007.7 0.0
29/11:00am 22.0 22.2 13.1 57 5.1 WNW 4 6 2 3 1008.4 1008.1 0.0
29/10:30am 18.6 19.7 13.5 72 2.9 CALM 0 4 0 2 1008.9 1008.6 0.0
29/10:00am 15.3 15.4 12.8 85 1.4 SSE 4 6 2 3 1009.0 1008.7 0.0
29/09:30am 13.6 13.9 12.3 92 0.7 SSE 2 4 1 2 1009.1 1008.8 0.0
29/09:00am 12.8 13.6 12.5 98 0.2 CALM 0 0 0 0 1009.3 1009.0 0.2
29/08:30am 10.6 10.0 10.3 98 0.2 ESE 4 4 2 2 1009.2 1008.9 0.2
29/08:00am 9.5 9.0 9.2 98 0.1 ENE 2 6 1 3 1009.5 1009.2 0.2
29/07:30am 8.7 8.3 8.3 97 0.2 CALM 0 0 0 0 1009.5 1009.2 0.2
29/07:00am 9.3 8.7 8.8 97 0.2 WNW 2 4 1 2 1009.7 1009.4 0.2
29/06:30am 9.4 8.4 8.9 97 0.2 W 4 6 2 3 1009.6 1009.3 0.2
29/06:00am 9.6 9.4 9.1 97 0.2 CALM 0 0 0 0 1009.3 1009.0 0.2
29/05:30am 9.8 9.6 9.2 96 0.3 CALM 0 0 0 0 1009.2 1008.9 0.2
29/05:00am 9.9 9.8 9.3 96 0.3 CALM 0 0 0 0 1009.0 1008.7 0.2
29/04:30am 10.0 9.8 9.2 95 0.4 CALM 0 0 0 0 1009.4 1009.1 0.2
29/04:00am 10.7 10.7 9.8 94 0.5 CALM 0 0 0 0 1009.7 1009.4 0.2
29/03:30am 11.1 11.2 10.0 93 0.6 CALM 0 0 0 0 1010.1 1009.8 0.2
29/03:00am 11.5 11.0 10.6 94 0.5 ENE 4 6 2 3 1010.3 1010.0 0.2
29/02:30am 11.6 11.0 10.3 92 0.7 ENE 4 6 2 3 1010.6 1010.3 0.2
29/02:00am 12.3 11.4 10.5 89 0.9 E 6 9 3 5 1010.7 1010.4 0.2
29/01:30am 13.0 12.0 10.9 87 1.1 E 7 9 4 5 1010.9 1010.6 0.2
29/01:00am 13.1 12.0 10.8 86 1.2 E 7 13 4 7 1011.1 1010.8 0.2
29/12:30am 13.3 11.9 10.8 85 1.3 ENE 9 15 5 8 1011.3 1011.0 0.2
29/12:00am 13.1 11.7 11.0 87 1.1 E 9 13 5 7 1011.7 1011.4 0.2
 
Date/Time
EDT
Temp
°C
App
Temp
°C
Dew
Point
°C
Rel
Hum
%
Delta-T
°C
Wind Press
QNH
hPa
Press
MSL
hPa
Rain since
9am
mm
Dir  Spd
km/h
Gust
km/h
Spd
kts
Gust
kts
28/11:30pm 12.9 12.0 10.6 86 1.2 ESE 6 9 3 5 1012.1 1011.8 0.2
28/11:00pm 13.1 12.0 10.1 82 1.6 E 6 9 3 5 1012.4 1012.1 0.2
28/10:30pm 12.8 12.0 9.6 81 1.6 E 4 6 2 3 1012.4 1012.1 0.2
28/10:00pm 14.3 13.9 9.9 75 2.3 ENE 2 4 1 2 1012.5 1012.2 0.2
28/09:30pm 14.6 13.9 10.0 74 2.4 ENE 4 6 2 3 1012.4 1012.1 0.2
28/09:00pm 14.9 13.8 9.9 72 2.6 NE 6 6 3 3 1012.5 1012.2 0.2
28/08:30pm 15.5 15.2 10.1 70 2.8 ENE 2 2 1 1 1012.3 1012.0 0.2
28/08:00pm 16.7 16.3 9.6 63 3.7 E 2 2 1 1 1012.0 1011.7 0.2
28/07:30pm 18.0 17.5 9.4 57 4.5 SSE 2 2 1 1 1011.8 1011.5 0.2
28/07:00pm 19.4 19.0 9.9 54 5.1 SSW 2 6 1 3 1011.7 1011.4 0.2
28/06:30pm 20.7 19.6 9.9 50 5.8 SW 6 11 3 6 1011.5 1011.2 0.2
28/06:00pm 21.5 20.2 10.0 48 6.3 WSW 7 13 4 7 1011.5 1011.2 0.2
28/05:30pm 22.1 20.8 9.9 46 6.7 WSW 7 13 4 7 1011.6 1011.3 0.2
28/05:00pm 21.8 20.1 10.0 47 6.4 WSW 9 19 5 10 1011.6 1011.3 0.2
28/04:30pm 22.4 20.3 9.9 45 6.8 W 11 17 6 9 1011.8 1011.5 0.2
28/04:00pm 21.7 19.7 10.2 48 6.3 WSW 11 19 6 10 1012.0 1011.7 0.2
28/03:30pm 22.3 21.0 11.4 50 6.1 WSW 9 20 5 11 1012.1 1011.8 0.2
28/03:00pm 21.5 20.0 10.6 50 6.0 W 9 19 5 10 1012.2 1011.9 0.2
28/02:30pm 21.5 19.5 10.3 49 6.1 W 11 19 6 10 1012.6 1012.3 0.2
28/02:00pm 21.1 19.5 10.3 50 5.9 W 9 22 5 12 1012.8 1012.5 0.2
28/01:30pm 20.8 17.8 10.6 52 5.6 W 17 24 9 13 1013.2 1012.9 0.2
28/01:00pm 20.2 17.9 10.6 54 5.2 WSW 13 20 7 11 1013.7 1013.4 0.0
28/12:30pm 20.8 17.9 10.9 53 5.5 WNW 17 26 9 14 1014.1 1013.8 0.0
28/12:00pm 20.0 17.7 10.4 54 5.2 NW 13 22 7 12 1014.4 1014.1 0.0
28/11:30am 19.1 16.3 11.2 60 4.3 W 17 24 9 13 1014.7 1014.4 0.0
28/11:00am 18.5 16.2 11.8 65 3.7 WNW 15 22 8 12 1015.0 1014.7 0.0
28/10:30am 17.9 16.2 12.6 71 3.0 WNW 13 24 7 13 1015.1 1014.8 0.0
28/10:00am 16.3 14.4 11.9 75 2.4 NW 13 19 7 10 1015.1 1014.8 0.0
28/09:30am 15.1 14.5 12.4 84 1.5 NW 7 17 4 9 1014.9 1014.6 0.0
28/09:00am 13.3 13.6 12.2 93 0.6 WNW 2 6 1 3 1014.7 1014.4 9.4
28/08:30am 11.9 11.5 11.1 95 0.4 NW 4 6 2 3 1014.6 1014.3 9.4
28/08:00am 10.6 9.9 10.0 96 0.3 NW 4 6 2 3 1014.3 1014.0 9.4
28/07:30am 9.8 8.5 9.2 96 0.3 NW 6 11 3 6 1014.2 1013.9 9.4
28/07:00am 9.6 8.7 9.1 97 0.2 NW 4 7 2 4 1014.1 1013.8 9.4
28/06:30am 9.6 9.0 9.1 97 0.2 NW 2 4 1 2 1013.7 1013.4 9.4
28/06:00am 9.5 8.9 9.0 97 0.2 NW 2 6 1 3 1013.6 1013.2 9.4
28/05:30am 9.9 9.5 9.6 98 0.2 NW 2 4 1 2 1013.3 1013.0 9.4
28/05:00am 10.1 9.3 9.8 98 0.2 NW 4 6 2 3 1013.0 1012.7 9.4
28/04:30am 10.0 10.0 9.7 98 0.2 CALM 0 4 0 2 1013.1 1012.8 9.4
28/04:00am 9.8 9.7 9.5 98 0.2 CALM 0 0 0 0 1013.1 1012.8 9.4
28/03:30am 9.6 9.4 9.1 97 0.2 CALM 0 0 0 0 1013.2 1012.9 9.4
28/03:00am 9.8 9.7 9.3 97 0.2 CALM 0 0 0 0 1013.4 1013.1 9.4
28/02:30am 9.3 9.0 8.8 97 0.2 CALM 0 0 0 0 1013.4 1013.1 9.4
28/02:00am 10.0 9.9 9.5 97 0.3 CALM 0 0 0 0 1013.6 1013.2 9.4
28/01:30am 9.6 9.4 9.0 96 0.3 CALM 0 0 0 0 1013.7 1013.4 9.4
28/01:00am 9.8 9.6 9.2 96 0.3 CALM 0 0 0 0 1013.7 1013.4 9.4
28/12:30am 9.9 9.7 9.1 95 0.4 CALM 0 0 0 0 1013.7 1013.4 9.4
28/12:00am 10.4 10.3 9.6 95 0.4 CALM 0 0 0 0 1013.6 1013.2 9.4

Other Formats:

Comma delimited format used in spreadsheet applications
http://www.bom.gov.au/fwo/IDV60801/IDV60801.99806.axf

JavaScript Object Notation format (JSON) in row-major order
http://www.bom.gov.au/fwo/IDV60801/IDV60801.99806.json